<?xml version="1.0" encoding="UTF-8" standalone="no" ?>
<gpx xmlns="http://www.topografix.com/GPX/1/1" xmlns:xsi="http://www.w3.org/2001/XMLSchema-instance" xsi:schemaLocation="http://www.topografix.com/GPX/1/1 http://www.topografix.com/GPX/1/1/gpx.xsd" version="1.1" creator="VisuGPX - https://www.visugpx.com">
  <metadata>
    <name>combe marion et coillu bordel </name>
    <desc><![CDATA[ski de la combe marion vers le coillu aller et retour]]></desc>
  </metadata>
  <wpt lat="46.17959" lon="5.91672">
    <ele>494.96</ele>
    <name><![CDATA[001]]></name>
  </wpt>
  <wpt lat="45.96373" lon="6.77729">
    <ele>1768.94</ele>
    <name><![CDATA[002]]></name>
  </wpt>
  <wpt lat="45.92289" lon="6.48432">
    <ele>1547.84</ele>
    <name><![CDATA[003]]></name>
  </wpt>
  <wpt lat="45.92679" lon="6.51817">
    <ele>2077.52</ele>
    <name><![CDATA[004]]></name>
  </wpt>
  <wpt lat="46.17998" lon="5.91662">
    <ele>426.23</ele>
    <name><![CDATA[005]]></name>
  </wpt>
  <wpt lat="46.17981" lon="5.91659">
    <ele>599.98</ele>
    <name><![CDATA[006]]></name>
  </wpt>
  <wpt lat="46.25476" lon="5.92722">
    <ele>1635.8</ele>
    <name><![CDATA[007]]></name>
  </wpt>
  <wpt lat="46.25699" lon="5.92978">
    <ele>1441.61</ele>
    <name><![CDATA[008]]></name>
  </wpt>
  <trk>
    <name><![CDATA[20-DEC-09: 20 DEC 2009 11:27]]></name>
    <trkseg>
      <trkpt lat="46.16395" lon="6.61851">
        <ele>1255.62</ele>
        <time>2009-12-20T10:27:20Z</time>
      </trkpt>
      <trkpt lat="46.16395" lon="6.61849">
        <ele>1254.18</ele>
        <time>2009-12-20T10:27:21Z</time>
      </trkpt>
      <trkpt lat="46.16404" lon="6.61849">
        <ele>1255.14</ele>
        <time>2009-12-20T10:27:27Z</time>
      </trkpt>
      <trkpt lat="46.16419" lon="6.61847">
        <ele>1255.14</ele>
        <time>2009-12-20T10:27:39Z</time>
      </trkpt>
      <trkpt lat="46.16432" lon="6.61845">
        <ele>1258.5</ele>
        <time>2009-12-20T10:27:49Z</time>
      </trkpt>
      <trkpt lat="46.1644" lon="6.61843">
        <ele>1259.46</ele>
        <time>2009-12-20T10:27:55Z</time>
      </trkpt>
      <trkpt lat="46.1644" lon="6.61843">
        <ele>1256.58</ele>
        <time>2009-12-20T10:27:56Z</time>
      </trkpt>
      <trkpt lat="46.16464" lon="6.61832">
        <ele>1258.5</ele>
        <time>2009-12-20T10:28:13Z</time>
      </trkpt>
      <trkpt lat="46.16479" lon="6.61819">
        <ele>1260.43</ele>
        <time>2009-12-20T10:28:28Z</time>
      </trkpt>
      <trkpt lat="46.16498" lon="6.61808">
        <ele>1261.87</ele>
        <time>2009-12-20T10:28:43Z</time>
      </trkpt>
      <trkpt lat="46.165" lon="6.61808">
        <ele>1262.83</ele>
        <time>2009-12-20T10:28:45Z</time>
      </trkpt>
      <trkpt lat="46.1652" lon="6.61795">
        <ele>1264.27</ele>
        <time>2009-12-20T10:29:01Z</time>
      </trkpt>
      <trkpt lat="46.1652" lon="6.61795">
        <ele>1264.27</ele>
        <time>2009-12-20T10:29:02Z</time>
      </trkpt>
      <trkpt lat="46.16526" lon="6.61793">
        <ele>1265.23</ele>
        <time>2009-12-20T10:29:06Z</time>
      </trkpt>
      <trkpt lat="46.1653" lon="6.61791">
        <ele>1265.23</ele>
        <time>2009-12-20T10:29:11Z</time>
      </trkpt>
      <trkpt lat="46.16547" lon="6.61778">
        <ele>1267.64</ele>
        <time>2009-12-20T10:29:27Z</time>
      </trkpt>
      <trkpt lat="46.16567" lon="6.61768">
        <ele>1268.12</ele>
        <time>2009-12-20T10:29:42Z</time>
      </trkpt>
      <trkpt lat="46.16586" lon="6.61759">
        <ele>1270.04</ele>
        <time>2009-12-20T10:29:57Z</time>
      </trkpt>
      <trkpt lat="46.16605" lon="6.61753">
        <ele>1272.44</ele>
        <time>2009-12-20T10:30:12Z</time>
      </trkpt>
      <trkpt lat="46.16616" lon="6.61744">
        <ele>1272.44</ele>
        <time>2009-12-20T10:30:21Z</time>
      </trkpt>
      <trkpt lat="46.16618" lon="6.61744">
        <ele>1271.96</ele>
        <time>2009-12-20T10:30:22Z</time>
      </trkpt>
      <trkpt lat="46.16633" lon="6.61737">
        <ele>1273.4</ele>
        <time>2009-12-20T10:30:33Z</time>
      </trkpt>
      <trkpt lat="46.1665" lon="6.61727">
        <ele>1273.88</ele>
        <time>2009-12-20T10:30:47Z</time>
      </trkpt>
      <trkpt lat="46.16665" lon="6.6172">
        <ele>1274.36</ele>
        <time>2009-12-20T10:30:59Z</time>
      </trkpt>
      <trkpt lat="46.16683" lon="6.61714">
        <ele>1274.85</ele>
        <time>2009-12-20T10:31:11Z</time>
      </trkpt>
      <trkpt lat="46.16696" lon="6.61707">
        <ele>1276.29</ele>
        <time>2009-12-20T10:31:21Z</time>
      </trkpt>
      <trkpt lat="46.16711" lon="6.61699">
        <ele>1277.25</ele>
        <time>2009-12-20T10:31:33Z</time>
      </trkpt>
      <trkpt lat="46.16728" lon="6.61692">
        <ele>1278.69</ele>
        <time>2009-12-20T10:31:47Z</time>
      </trkpt>
      <trkpt lat="46.16736" lon="6.61688">
        <ele>1279.17</ele>
        <time>2009-12-20T10:31:54Z</time>
      </trkpt>
      <trkpt lat="46.16756" lon="6.61684">
        <ele>1280.13</ele>
        <time>2009-12-20T10:32:08Z</time>
      </trkpt>
      <trkpt lat="46.16758" lon="6.61682">
        <ele>1281.09</ele>
        <time>2009-12-20T10:32:11Z</time>
      </trkpt>
      <trkpt lat="46.16773" lon="6.61677">
        <ele>1281.57</ele>
        <time>2009-12-20T10:32:23Z</time>
      </trkpt>
      <trkpt lat="46.16775" lon="6.61677">
        <ele>1282.54</ele>
        <time>2009-12-20T10:32:26Z</time>
      </trkpt>
      <trkpt lat="46.16788" lon="6.61673">
        <ele>1282.54</ele>
        <time>2009-12-20T10:32:37Z</time>
      </trkpt>
      <trkpt lat="46.16796" lon="6.61673">
        <ele>1284.46</ele>
        <time>2009-12-20T10:32:43Z</time>
      </trkpt>
      <trkpt lat="46.16814" lon="6.61671">
        <ele>1285.42</ele>
        <time>2009-12-20T10:32:55Z</time>
      </trkpt>
      <trkpt lat="46.16835" lon="6.61671">
        <ele>1286.86</ele>
        <time>2009-12-20T10:33:11Z</time>
      </trkpt>
      <trkpt lat="46.1685" lon="6.61669">
        <ele>1288.3</ele>
        <time>2009-12-20T10:33:24Z</time>
      </trkpt>
      <trkpt lat="46.16854" lon="6.61669">
        <ele>1288.78</ele>
        <time>2009-12-20T10:33:28Z</time>
      </trkpt>
      <trkpt lat="46.16874" lon="6.61667">
        <ele>1291.67</ele>
        <time>2009-12-20T10:33:43Z</time>
      </trkpt>
      <trkpt lat="46.16889" lon="6.61662">
        <ele>1293.11</ele>
        <time>2009-12-20T10:33:56Z</time>
      </trkpt>
      <trkpt lat="46.16902" lon="6.6166">
        <ele>1295.03</ele>
        <time>2009-12-20T10:34:07Z</time>
      </trkpt>
      <trkpt lat="46.16908" lon="6.6166">
        <ele>1295.99</ele>
        <time>2009-12-20T10:34:12Z</time>
      </trkpt>
      <trkpt lat="46.16912" lon="6.6166">
        <ele>1295.99</ele>
        <time>2009-12-20T10:34:14Z</time>
      </trkpt>
      <trkpt lat="46.16921" lon="6.61656">
        <ele>1295.51</ele>
        <time>2009-12-20T10:34:28Z</time>
      </trkpt>
      <trkpt lat="46.16921" lon="6.61658">
        <ele>1295.03</ele>
        <time>2009-12-20T10:34:54Z</time>
      </trkpt>
      <trkpt lat="46.16921" lon="6.61658">
        <ele>1295.03</ele>
        <time>2009-12-20T10:34:59Z</time>
      </trkpt>
      <trkpt lat="46.16921" lon="6.61658">
        <ele>1290.71</ele>
        <time>2009-12-20T10:35:01Z</time>
      </trkpt>
      <trkpt lat="46.16921" lon="6.6166">
        <ele>1294.07</ele>
        <time>2009-12-20T10:35:02Z</time>
      </trkpt>
      <trkpt lat="46.16921" lon="6.6166">
        <ele>1294.07</ele>
        <time>2009-12-20T10:35:16Z</time>
      </trkpt>
    </trkseg>
  </trk>
</gpx>